createdAt,value
2022-10-09T00:01:18.816Z,9.00
2022-10-09T00:03:47.268Z,9.20
2022-10-09T00:06:22.612Z,9.20
2022-10-09T00:08:49.983Z,9.30
2022-10-09T00:11:20.105Z,9.20
2022-10-09T00:13:47.392Z,9.20
2022-10-09T00:16:16.427Z,9.20
2022-10-09T00:18:43.655Z,9.40
2022-10-09T00:21:23.347Z,9.30
2022-10-09T00:23:51.190Z,9.40
2022-10-09T00:26:18.813Z,9.30
2022-10-09T00:28:46.395Z,9.30
2022-10-09T00:31:14.092Z,9.30
2022-10-09T00:33:41.074Z,9.40
2022-10-09T00:36:17.094Z,9.40
2022-10-09T00:38:44.174Z,9.40
2022-10-09T00:41:17.629Z,9.40
2022-10-09T00:44:02.043Z,9.30
2022-10-09T00:46:33.638Z,9.40
2022-10-09T00:49:22.549Z,10.10
2022-10-09T00:51:51.679Z,9.30
2022-10-09T00:54:23.083Z,9.20
2022-10-09T00:56:50.668Z,9.20
2022-10-09T00:59:18.292Z,9.10
2022-10-09T01:01:45.752Z,9.10
2022-10-09T01:04:12.571Z,9.00
2022-10-09T01:06:39.245Z,9.10
2022-10-09T01:09:13.029Z,9.20
2022-10-09T01:11:51.641Z,9.50
2022-10-09T01:14:27.769Z,9.30
2022-10-09T01:17:07.839Z,9.60
2022-10-09T01:20:16.545Z,9.10
2022-10-09T01:23:05.729Z,9.10
2022-10-09T01:25:53.940Z,9.10
2022-10-09T01:28:23.748Z,9.10
2022-10-09T01:30:50.790Z,9.00
2022-10-09T01:33:18.392Z,9.20
2022-10-09T01:35:46.027Z,9.00
2022-10-09T01:38:12.889Z,8.90
2022-10-09T01:40:39.730Z,8.80
2022-10-09T01:43:06.373Z,8.90
2022-10-09T01:45:41.894Z,8.90
2022-10-09T01:48:14.025Z,9.20
2022-10-09T01:50:45.217Z,8.90
2022-10-09T01:53:18.219Z,8.90
2022-10-09T01:56:04.001Z,9.00
2022-10-09T01:58:44.253Z,8.90
2022-10-09T02:01:16.567Z,8.80
2022-10-09T02:03:46.999Z,8.60
2022-10-09T02:06:16.180Z,8.60
2022-10-09T02:08:45.548Z,9.00
2022-10-09T02:11:15.048Z,8.40
2022-10-09T02:13:43.404Z,9.80
2022-10-09T02:16:21.733Z,9.60
2022-10-09T02:19:04.323Z,8.70
2022-10-09T02:21:46.427Z,8.80
2022-10-09T02:24:20.409Z,8.80
2022-10-09T02:26:47.180Z,9.00
2022-10-09T02:29:15.729Z,8.80
2022-10-09T02:31:43.757Z,8.70
2022-10-09T02:34:12.811Z,8.60
2022-10-09T02:36:40.011Z,8.60
2022-10-09T02:39:07.812Z,8.60
2022-10-09T02:41:35.178Z,8.50
2022-10-09T02:44:02.250Z,8.60
2022-10-09T02:46:29.033Z,9.20
2022-10-09T02:48:55.841Z,8.50
2022-10-09T02:51:22.647Z,8.60
2022-10-09T02:53:52.946Z,8.60
2022-10-09T02:56:20.791Z,8.70
2022-10-09T02:58:47.580Z,9.20
2022-10-09T03:01:14.977Z,8.70
2022-10-09T03:03:41.829Z,8.60
2022-10-09T03:06:16.933Z,8.50
2022-10-09T03:08:46.630Z,8.40
2022-10-09T03:11:14.428Z,8.40
2022-10-09T03:13:41.232Z,8.40
2022-10-09T03:16:11.048Z,8.30
2022-10-09T03:18:38.105Z,8.30
2022-10-09T03:21:09.749Z,8.30
2022-10-09T03:23:37.500Z,8.40
2022-10-09T03:26:07.663Z,8.40
2022-10-09T03:28:40.247Z,8.50
2022-10-09T03:31:50.525Z,8.40
2022-10-09T03:34:13.801Z,8.40
2022-10-09T03:36:40.756Z,8.50
2022-10-09T03:39:07.870Z,8.50
2022-10-09T03:41:34.593Z,8.40
2022-10-09T03:44:01.336Z,8.50
2022-10-09T03:46:28.247Z,8.50
2022-10-09T03:48:55.395Z,8.40
2022-10-09T03:51:22.047Z,8.10
2022-10-09T03:53:48.793Z,8.00
2022-10-09T03:56:15.457Z,7.60
2022-10-09T03:58:42.141Z,8.90
2022-10-09T04:01:08.975Z,8.40
2022-10-09T04:03:35.858Z,8.00
2022-10-09T04:06:02.549Z,7.90
2022-10-09T04:08:29.385Z,8.00
2022-10-09T04:11:00.470Z,8.20
2022-10-09T04:13:27.625Z,8.20
2022-10-09T04:15:55.275Z,8.50
2022-10-09T04:18:22.860Z,8.30
2022-10-09T04:20:51.484Z,8.50
2022-10-09T04:23:19.202Z,8.70
2022-10-09T04:25:46.506Z,8.40
2022-10-09T04:28:13.450Z,8.30
2022-10-09T04:30:40.274Z,8.10
2022-10-09T04:33:11.786Z,8.50
2022-10-09T04:35:44.219Z,8.90
2022-10-09T04:38:11.415Z,8.30
2022-10-09T04:40:38.194Z,8.80
2022-10-09T04:43:04.883Z,8.20
2022-10-09T04:45:31.669Z,8.20
2022-10-09T04:47:58.679Z,8.90
2022-10-09T04:50:25.433Z,8.40
2022-10-09T04:52:52.219Z,8.30
2022-10-09T04:55:18.969Z,8.30
2022-10-09T04:57:45.659Z,8.70
2022-10-09T05:00:13.437Z,8.30
2022-10-09T05:02:40.422Z,8.30
2022-10-09T05:05:07.659Z,8.70
2022-10-09T05:07:34.336Z,8.20
2022-10-09T05:10:00.994Z,8.30
2022-10-09T05:12:27.815Z,8.20
2022-10-09T05:14:54.516Z,8.20
2022-10-09T05:17:23.496Z,8.80
2022-10-09T05:19:50.566Z,8.70
2022-10-09T05:22:17.217Z,8.10
2022-10-09T05:24:43.903Z,8.30
2022-10-09T05:27:10.773Z,8.70
2022-10-09T05:29:37.416Z,8.20
2022-10-09T05:32:04.243Z,9.00
2022-10-09T05:34:30.999Z,8.30
2022-10-09T05:36:57.739Z,8.30
2022-10-09T05:39:24.697Z,9.70
2022-10-09T05:41:51.446Z,8.30
2022-10-09T05:44:18.194Z,8.30
2022-10-09T05:46:44.856Z,8.10
2022-10-09T05:49:12.210Z,8.20
2022-10-09T05:51:40.311Z,8.20
2022-10-09T05:54:07.459Z,8.30
2022-10-09T05:56:38.742Z,8.30
2022-10-09T05:59:10.844Z,8.30
2022-10-09T06:01:39.998Z,8.30
2022-10-09T06:04:10.910Z,8.20
2022-10-09T06:06:39.025Z,8.20
2022-10-09T06:09:07.102Z,8.80
2022-10-09T06:11:36.246Z,8.20
2022-10-09T06:14:05.886Z,8.20
2022-10-09T06:16:36.015Z,8.30
2022-10-09T06:19:04.476Z,8.20
2022-10-09T06:21:32.258Z,8.40
2022-10-09T06:24:01.068Z,8.30
2022-10-09T06:26:29.314Z,8.20
2022-10-09T06:28:57.120Z,8.10
2022-10-09T06:31:26.209Z,8.10
2022-10-09T06:33:53.959Z,8.00
2022-10-09T06:36:22.112Z,8.10
2022-10-09T06:38:49.596Z,9.10
2022-10-09T06:41:21.685Z,9.00
2022-10-09T06:43:50.962Z,8.80
2022-10-09T06:46:18.444Z,9.00
2022-10-09T06:48:45.310Z,7.90
2022-10-09T06:51:14.609Z,8.00
2022-10-09T06:53:44.317Z,8.90
2022-10-09T06:56:12.391Z,8.10
2022-10-09T06:58:40.515Z,8.20
2022-10-09T07:01:11.151Z,8.20
2022-10-09T07:03:39.481Z,9.10
2022-10-09T07:06:18.910Z,8.10
2022-10-09T07:08:49.337Z,8.40
2022-10-09T07:11:21.964Z,8.20
2022-10-09T07:13:51.804Z,8.80
2022-10-09T07:16:27.087Z,8.30
2022-10-09T07:18:55.216Z,8.30
2022-10-09T07:21:22.634Z,8.40
2022-10-09T07:23:49.418Z,9.40
2022-10-09T07:26:24.289Z,8.20
2022-10-09T07:28:51.616Z,8.30
2022-10-09T07:31:18.466Z,9.00
2022-10-09T07:33:52.790Z,8.40
2022-10-09T07:36:20.238Z,8.60
2022-10-09T07:38:52.495Z,8.60
2022-10-09T07:41:20.106Z,8.60
2022-10-09T07:43:47.072Z,8.60
2022-10-09T07:46:16.181Z,8.70
2022-10-09T07:48:43.409Z,8.60
2022-10-09T07:51:13.355Z,9.00
2022-10-09T07:53:40.187Z,8.80
2022-10-09T07:56:07.759Z,8.80
2022-10-09T07:58:34.783Z,9.40
2022-10-09T08:01:06.675Z,9.40
2022-10-09T08:03:34.454Z,9.00
2022-10-09T08:06:01.538Z,9.00
2022-10-09T08:08:28.588Z,9.00
2022-10-09T08:10:55.335Z,9.00
2022-10-09T08:13:22.376Z,9.90
2022-10-09T08:15:49.267Z,9.80
2022-10-09T08:18:16.425Z,8.80
2022-10-09T08:20:43.176Z,9.00
2022-10-09T08:23:09.890Z,9.10
2022-10-09T08:25:37.425Z,10.30
2022-10-09T08:28:05.241Z,9.10
2022-10-09T08:30:32.241Z,9.80
2022-10-09T08:32:58.918Z,9.90
2022-10-09T08:35:25.616Z,9.60
2022-10-09T08:37:52.595Z,10.20
2022-10-09T08:40:27.192Z,10.20
2022-10-09T08:43:02.513Z,9.60
2022-10-09T08:45:30.610Z,10.30
2022-10-09T08:48:05.837Z,10.10
2022-10-09T08:50:38.303Z,9.80
2022-10-09T08:53:26.742Z,10.20
2022-10-09T08:55:59.435Z,10.00
2022-10-09T08:58:30.996Z,10.10
2022-10-09T09:01:15.716Z,10.40
2022-10-09T09:03:57.383Z,10.10
2022-10-09T09:06:57.548Z,10.10
2022-10-09T09:09:36.132Z,10.20
2022-10-09T09:12:22.131Z,10.30
2022-10-09T09:15:10.656Z,10.30
2022-10-09T09:18:04.616Z,10.40
2022-10-09T09:20:43.372Z,10.40
2022-10-09T09:23:15.375Z,10.60
2022-10-09T09:25:44.212Z,10.80
2022-10-09T09:28:35.234Z,10.80
2022-10-09T09:31:20.955Z,10.70
2022-10-09T09:34:10.460Z,11.20
2022-10-09T09:36:57.603Z,10.90
2022-10-09T09:42:20.373Z,11.20
2022-10-09T09:45:07.730Z,11.10
2022-10-09T09:47:40.339Z,11.20
2022-10-09T09:50:18.414Z,11.60
2022-10-09T09:52:50.773Z,11.20
2022-10-09T09:55:32.667Z,11.40
2022-10-09T09:58:06.112Z,11.50
2022-10-09T10:00:34.139Z,11.40
2022-10-09T10:03:09.217Z,12.20
2022-10-09T10:05:37.615Z,12.50
2022-10-09T10:08:29.754Z,11.90
2022-10-09T10:11:00.074Z,11.80
2022-10-09T10:13:38.165Z,12.00
2022-10-09T10:16:07.147Z,12.60
2022-10-09T10:18:39.809Z,11.90
2022-10-09T10:21:14.964Z,12.10
2022-10-09T10:23:44.676Z,12.20
2022-10-09T10:26:39.550Z,12.30
2022-10-09T10:29:19.678Z,12.30
2022-10-09T10:32:15.837Z,12.20
2022-10-09T10:35:06.847Z,12.20
2022-10-09T10:37:47.722Z,12.30
2022-10-09T10:40:24.801Z,12.40
2022-10-09T10:43:16.175Z,12.50
2022-10-09T10:46:04.748Z,12.60
2022-10-09T10:48:41.405Z,12.80
2022-10-09T10:51:26.245Z,13.00
2022-10-09T10:54:04.675Z,12.90
2022-10-09T10:56:39.212Z,12.80
2022-10-09T10:59:29.311Z,12.70
2022-10-09T11:02:01.924Z,12.60
2022-10-09T11:04:34.632Z,12.60
2022-10-09T11:07:27.435Z,12.60
2022-10-09T11:10:18.463Z,12.60
2022-10-09T11:12:55.225Z,12.70
2022-10-09T11:15:42.629Z,12.70
2022-10-09T11:18:24.396Z,12.80
2022-10-09T11:21:22.180Z,12.90
2022-10-09T11:24:29.229Z,12.90
2022-10-09T11:27:10.392Z,13.10
2022-10-09T11:29:43.624Z,13.20
2022-10-09T11:32:21.813Z,13.30
2022-10-09T11:35:02.148Z,13.30
2022-10-09T11:37:34.983Z,13.50
2022-10-09T11:40:16.874Z,13.50
2022-10-09T11:43:14.172Z,13.50
2022-10-09T11:46:03.461Z,13.50
2022-10-09T11:49:05.082Z,13.50
2022-10-09T11:51:57.415Z,13.60
2022-10-09T11:54:27.430Z,13.60
2022-10-09T11:56:54.452Z,13.60
2022-10-09T11:59:25.872Z,13.60
2022-10-09T12:01:52.852Z,13.60
2022-10-09T12:04:50.077Z,13.50
2022-10-09T12:07:25.339Z,13.30
2022-10-09T12:09:59.592Z,13.40
2022-10-09T12:12:26.735Z,13.40
2022-10-09T12:14:53.992Z,13.40
2022-10-09T12:17:23.702Z,13.40
2022-10-09T12:20:00.922Z,13.40
2022-10-09T12:22:35.822Z,13.30
2022-10-09T12:25:14.196Z,13.30
2022-10-09T12:27:41.641Z,13.40
2022-10-09T12:30:12.776Z,13.40
2022-10-09T12:33:00.755Z,13.30
2022-10-09T12:35:39.333Z,13.40
2022-10-09T12:38:25.114Z,13.50
2022-10-09T12:40:53.606Z,13.60
2022-10-09T12:43:23.316Z,13.60
2022-10-09T12:45:53.061Z,13.50
2022-10-09T12:48:26.019Z,13.60
2022-10-09T12:50:53.404Z,13.60
2022-10-09T12:53:23.716Z,13.60
2022-10-09T12:55:53.507Z,13.60
2022-10-09T12:58:29.656Z,13.70
2022-10-09T13:01:00.395Z,13.70
2022-10-09T13:03:37.325Z,13.80
2022-10-09T13:06:07.112Z,13.70
2022-10-09T13:08:37.523Z,13.70
2022-10-09T13:11:31.294Z,13.50
2022-10-09T13:13:58.617Z,13.50
2022-10-09T13:16:26.202Z,13.50
2022-10-09T13:19:01.641Z,13.70
2022-10-09T13:21:34.354Z,13.60
2022-10-09T13:24:10.474Z,13.60
2022-10-09T13:26:38.914Z,13.60
2022-10-09T13:29:06.525Z,13.70
2022-10-09T13:31:33.919Z,13.70
2022-10-09T13:34:09.675Z,13.80
2022-10-09T13:36:36.385Z,13.70
2022-10-09T13:39:03.692Z,13.70
2022-10-09T13:41:31.641Z,13.70
2022-10-09T13:43:58.608Z,13.70
2022-10-09T13:46:25.332Z,13.70
2022-10-09T13:48:52.172Z,14.00
2022-10-09T13:51:18.825Z,13.70
2022-10-09T13:53:45.473Z,13.60
2022-10-09T13:56:12.196Z,13.60
2022-10-09T13:58:38.958Z,13.80
2022-10-09T14:01:05.976Z,13.60
2022-10-09T14:03:32.803Z,13.60
2022-10-09T14:06:00.805Z,13.70
2022-10-09T14:08:27.599Z,13.60
2022-10-09T14:10:54.651Z,13.80
2022-10-09T14:13:21.790Z,14.00
2022-10-09T14:15:49.083Z,13.80
2022-10-09T14:18:15.904Z,13.70
2022-10-09T14:20:42.792Z,13.80
2022-10-09T14:23:09.488Z,13.80
2022-10-09T14:25:36.275Z,13.90
2022-10-09T14:28:03.671Z,13.90
2022-10-09T14:30:31.196Z,13.80
2022-10-09T14:32:58.915Z,14.10
2022-10-09T14:35:25.956Z,13.60
2022-10-09T14:37:52.621Z,13.60
2022-10-09T14:40:19.464Z,14.00
2022-10-09T14:42:46.322Z,13.40
2022-10-09T14:45:13.144Z,13.60
2022-10-09T14:47:39.948Z,13.80
2022-10-09T14:50:07.843Z,13.60
2022-10-09T14:52:34.657Z,13.40
2022-10-09T14:55:01.351Z,13.30
2022-10-09T14:57:32.876Z,13.30
2022-10-09T15:00:02.260Z,13.40
2022-10-09T15:02:28.986Z,13.70
2022-10-09T15:04:55.951Z,13.50
2022-10-09T15:07:22.639Z,13.50
2022-10-09T15:09:49.375Z,14.20
2022-10-09T15:12:16.166Z,13.50
2022-10-09T15:14:42.831Z,13.50
2022-10-09T15:17:09.591Z,13.80
2022-10-09T15:19:36.274Z,13.40
2022-10-09T15:22:03.242Z,13.40
2022-10-09T15:24:29.957Z,13.40
2022-10-09T15:26:56.631Z,13.70
2022-10-09T15:29:23.452Z,13.60
2022-10-09T15:31:51.611Z,13.40
2022-10-09T15:34:19.489Z,13.40
2022-10-09T15:36:46.870Z,13.30
2022-10-09T15:39:14.289Z,13.30
2022-10-09T15:41:42.781Z,13.40
2022-10-09T15:44:16.262Z,13.30
2022-10-09T15:46:43.874Z,13.40
2022-10-09T15:49:11.211Z,13.20
2022-10-09T15:51:38.710Z,13.20
2022-10-09T15:54:06.283Z,13.40
2022-10-09T15:56:38.800Z,13.10
2022-10-09T15:59:06.715Z,13.10
2022-10-09T16:01:33.568Z,13.40
2022-10-09T16:04:00.297Z,13.40
2022-10-09T16:06:27.268Z,13.10
2022-10-09T16:08:58.277Z,13.70
2022-10-09T16:11:26.687Z,13.00
2022-10-09T16:13:54.954Z,12.90
2022-10-09T16:16:24.982Z,12.90
2022-10-09T16:18:52.375Z,12.90
2022-10-09T16:21:26.068Z,13.30
2022-10-09T16:23:58.138Z,12.80
2022-10-09T16:26:27.018Z,12.80
2022-10-09T16:28:54.070Z,12.80
2022-10-09T16:31:41.105Z,13.20
2022-10-09T16:34:08.184Z,12.70
2022-10-09T16:36:34.953Z,12.60
2022-10-09T16:39:01.861Z,12.80
2022-10-09T16:41:28.556Z,12.60
2022-10-09T16:43:56.613Z,12.70
2022-10-09T16:46:28.233Z,14.00
2022-10-09T16:48:56.984Z,12.50
2022-10-09T16:51:34.940Z,12.40
2022-10-09T16:54:03.914Z,12.50
2022-10-09T16:56:33.309Z,12.50
2022-10-09T16:59:02.078Z,12.50
2022-10-09T17:01:28.919Z,12.50
2022-10-09T17:03:59.912Z,12.40
2022-10-09T17:06:27.553Z,12.40
2022-10-09T17:08:57.546Z,12.40
2022-10-09T17:11:26.250Z,12.50
2022-10-09T17:13:56.745Z,12.80
2022-10-09T17:16:26.836Z,12.50
2022-10-09T17:18:54.546Z,12.30
2022-10-09T17:21:21.490Z,12.40
2022-10-09T17:23:48.433Z,12.50
2022-10-09T17:26:17.870Z,13.20
2022-10-09T17:28:46.408Z,13.00
2022-10-09T17:31:16.840Z,12.60
2022-10-09T17:33:46.327Z,13.20
2022-10-09T17:36:16.032Z,13.20
2022-10-09T17:38:43.217Z,12.40
2022-10-09T17:41:12.423Z,13.10
2022-10-09T17:43:39.583Z,12.70
2022-10-09T17:46:06.997Z,13.20
2022-10-09T17:48:34.697Z,13.30
2022-10-09T17:51:03.977Z,12.90
2022-10-09T17:53:31.188Z,13.00
2022-10-09T17:56:02.881Z,13.40
2022-10-09T17:58:30.081Z,12.30
2022-10-09T18:00:56.950Z,12.30
2022-10-09T18:03:24.077Z,12.60
2022-10-09T18:05:51.395Z,12.30
2022-10-09T18:08:20.023Z,12.40
2022-10-09T18:10:47.096Z,12.30
2022-10-09T18:13:14.318Z,12.50
2022-10-09T18:15:43.013Z,13.20
2022-10-09T18:18:11.063Z,12.80
2022-10-09T18:20:38.628Z,12.40
2022-10-09T18:23:05.791Z,12.80
2022-10-09T18:25:33.316Z,13.00
2022-10-09T18:28:00.204Z,12.40
2022-10-09T18:30:27.722Z,12.30
2022-10-09T18:32:54.597Z,12.30
2022-10-09T18:35:21.280Z,12.40
2022-10-09T18:37:47.945Z,12.70
2022-10-09T18:40:14.925Z,12.20
2022-10-09T18:42:41.690Z,12.50
2022-10-09T18:45:12.632Z,12.30
2022-10-09T18:47:40.516Z,12.30
2022-10-09T18:50:10.784Z,13.00
2022-10-09T18:52:37.889Z,12.30
2022-10-09T18:55:07.565Z,12.80
2022-10-09T18:57:34.566Z,12.30
2022-10-09T19:00:02.135Z,12.20
2022-10-09T19:02:28.830Z,12.20
2022-10-09T19:04:55.628Z,12.30
2022-10-09T19:07:22.610Z,12.50
2022-10-09T19:09:53.577Z,12.30
2022-10-09T19:12:21.694Z,12.10
2022-10-09T19:14:48.364Z,12.30
2022-10-09T19:17:15.192Z,12.10
2022-10-09T19:19:41.963Z,12.10
2022-10-09T19:22:14.086Z,12.60
2022-10-09T19:24:42.482Z,12.20
2022-10-09T19:27:09.505Z,12.30
2022-10-09T19:29:36.512Z,12.40
2022-10-09T19:32:03.360Z,12.40
2022-10-09T19:34:30.313Z,12.40
2022-10-09T19:36:57.200Z,12.40
2022-10-09T19:39:24.027Z,12.80
2022-10-09T19:41:51.173Z,12.40
2022-10-09T19:44:18.301Z,12.60
2022-10-09T19:46:45.753Z,12.30
2022-10-09T19:49:12.591Z,13.30
2022-10-09T19:51:39.267Z,12.40
2022-10-09T19:54:07.688Z,12.30
2022-10-09T19:56:36.099Z,12.40
2022-10-09T19:59:06.704Z,12.40
2022-10-09T20:01:35.594Z,12.30
2022-10-09T20:04:05.731Z,12.60
2022-10-09T20:06:32.642Z,12.20
2022-10-09T20:08:59.360Z,12.20
2022-10-09T20:11:26.924Z,12.70
2022-10-09T20:13:56.123Z,12.40
2022-10-09T20:16:24.236Z,12.40
2022-10-09T20:18:51.006Z,12.40
2022-10-09T20:21:18.656Z,12.10
2022-10-09T20:23:45.574Z,12.10
2022-10-09T20:26:15.418Z,11.90
2022-10-09T20:28:43.680Z,11.90
2022-10-09T20:31:18.042Z,11.90
2022-10-09T20:33:46.159Z,12.00
2022-10-09T20:36:35.434Z,11.80
2022-10-09T20:39:05.772Z,11.90
2022-10-09T20:41:32.742Z,11.80
2022-10-09T20:44:01.571Z,12.00
2022-10-09T20:46:30.349Z,12.30
2022-10-09T20:48:57.204Z,11.80
2022-10-09T20:51:24.441Z,11.80
2022-10-09T20:53:53.331Z,11.90
2022-10-09T20:56:19.983Z,11.80
2022-10-09T20:58:46.680Z,11.90
2022-10-09T21:01:16.102Z,12.10
2022-10-09T21:03:43.651Z,11.80
2022-10-09T21:06:13.536Z,11.80
2022-10-09T21:08:40.698Z,11.60
2022-10-09T21:11:09.745Z,11.80
2022-10-09T21:13:37.294Z,12.00
2022-10-09T21:16:09.007Z,11.80
2022-10-09T21:18:36.672Z,11.50
2022-10-09T21:21:15.453Z,11.50
2022-10-09T21:23:42.332Z,11.40
2022-10-09T21:26:14.526Z,11.60
2022-10-09T21:28:41.936Z,11.20
2022-10-09T21:31:18.036Z,11.10
2022-10-09T21:33:45.495Z,11.60
2022-10-09T21:36:25.380Z,11.80
2022-10-09T21:38:52.116Z,11.20
2022-10-09T21:41:18.764Z,11.30
2022-10-09T21:43:45.587Z,11.10
2022-10-09T21:46:12.336Z,11.60
2022-10-09T21:48:39.139Z,11.50
2022-10-09T21:51:05.887Z,11.00
2022-10-09T21:53:32.905Z,11.20
2022-10-09T21:55:59.561Z,10.90
2022-10-09T21:58:26.254Z,10.90
2022-10-09T22:01:01.084Z,11.00
2022-10-09T22:03:29.716Z,10.90
2022-10-09T22:05:56.500Z,10.90
2022-10-09T22:08:23.843Z,10.80
2022-10-09T22:10:50.643Z,11.00
2022-10-09T22:13:18.459Z,10.70
2022-10-09T22:15:48.906Z,10.50
2022-10-09T22:18:16.957Z,10.80
2022-10-09T22:20:46.243Z,10.60
2022-10-09T22:23:14.052Z,10.60
2022-10-09T22:25:40.721Z,10.30
2022-10-09T22:28:07.784Z,10.20
2022-10-09T22:30:35.203Z,10.10
2022-10-09T22:33:02.218Z,10.10
2022-10-09T22:35:29.030Z,10.40
2022-10-09T22:37:57.290Z,10.40
2022-10-09T22:40:24.000Z,10.10
2022-10-09T22:42:51.083Z,10.40
2022-10-09T22:45:17.952Z,10.20
2022-10-09T22:47:47.421Z,11.50
2022-10-09T22:50:14.164Z,10.00
2022-10-09T22:52:40.886Z,10.30
2022-10-09T22:55:08.053Z,10.10
2022-10-09T22:57:34.769Z,10.20
2022-10-09T23:00:01.481Z,9.90
2022-10-09T23:02:28.225Z,9.80
2022-10-09T23:04:55.016Z,10.80
2022-10-09T23:07:21.744Z,9.80
2022-10-09T23:09:48.453Z,9.90
2022-10-09T23:12:15.890Z,9.90
2022-10-09T23:14:42.597Z,10.00
2022-10-09T23:17:09.238Z,10.00
2022-10-09T23:19:36.308Z,10.00
2022-10-09T23:22:02.997Z,10.00
2022-10-09T23:24:29.658Z,10.20
2022-10-09T23:26:56.339Z,9.60
2022-10-09T23:29:22.999Z,9.60
2022-10-09T23:31:52.565Z,10.00
2022-10-09T23:34:19.256Z,10.30
2022-10-09T23:36:45.999Z,9.90
2022-10-09T23:39:13.099Z,10.00
2022-10-09T23:41:39.929Z,10.20
2022-10-09T23:44:06.664Z,10.30
2022-10-09T23:46:33.903Z,10.10
2022-10-09T23:49:00.893Z,10.30
2022-10-09T23:51:28.384Z,10.50
2022-10-09T23:53:55.241Z,10.20
2022-10-09T23:56:32.237Z,10.30
2022-10-09T23:59:00.357Z,10.40
